Overview Statistics Trail Chart Weather Telemetry Raw packets
 

This is the latest recevied weather packets stored in our database for station/object KB4JAC-13. If no packets are shown the sender has not sent any weather packets the latest 10 day(s).

<< 13 14 15 16 17 18 19 >>
Time Temp. Humidity Pressure Rain* Wind** Luminosity Snow
1788359992 31.11° C 75% 994.9 hPa 0 mm - - -
1788359392 30.56° C 76% 994.9 hPa 0 mm - - -
1788358791 30° C 76% 994.7 hPa 0 mm - - -
1788358190 30° C 77% 994.8 hPa 0 mm - - -
1788357589 29.44° C 77% 994.9 hPa 0 mm - - -
1788356988 28.89° C 80% 995 hPa 0 mm - - -
1788356387 29.44° C 78% 995 hPa 0 mm - - -
1788355787 28.89° C 78% 995.2 hPa 0 mm - - -
1788355186 27.78° C 82% 995.1 hPa 0 mm - - -
1788354585 27.22° C 84% 994.9 hPa 0 mm - - -
1788353984 25.56° C 88% 994.8 hPa 0 mm - - -
1788353383 23.33° C 95% 994.7 hPa 0 mm - - -
1788352782 22.78° C 99% 994.7 hPa 0 mm - - -
1788352181 22.22° C 99% 994.6 hPa 0 mm - - -
1788351580 22.22° C 99% 994.7 hPa 0 mm - - -
1788350979 21.67° C 99% 994.5 hPa 0 mm - - -
1788350378 21.67° C 99% 994.2 hPa 0 mm - - -
1788349777 21.11° C 99% 994.2 hPa 0 mm - - -
1788349176 21.11° C 99% 994.1 hPa 0 mm - - -
1788348576 21.11° C 99% 994 hPa 0 mm - - -
1788347975 21.11° C 99% 994 hPa 0 mm - - -
1788347374 21.11° C 99% 993.9 hPa 0 mm - - -
1788346773 21.11° C 99% 993.6 hPa 0 mm - - -
1788346172 21.11° C 99% 993.7 hPa 0 mm - - -
1788345571 21.11° C 99% 993.8 hPa 0 mm - - -

* Rain since midnight (hover to see other rain measurements)
** Current wind speed in m/s (hover to see current wind gust speed)